createdAt,value
2019-03-03T00:01:50.344Z,99181.06
2019-03-03T00:05:53.076Z,99179.84
2019-03-03T00:09:55.852Z,99194.66
2019-03-03T00:13:58.609Z,99198.00
2019-03-03T00:18:01.436Z,99196.67
2019-03-03T00:22:04.115Z,99203.27
2019-03-03T00:26:06.838Z,99210.77
2019-03-03T00:30:10.050Z,99221.58
2019-03-03T00:34:12.938Z,99235.16
2019-03-03T00:38:46.870Z,99229.64
2019-03-03T00:43:17.310Z,99232.42
2019-03-03T00:47:43.558Z,99228.09
2019-03-03T00:52:01.710Z,99229.52
2019-03-03T00:56:11.263Z,99233.98
2019-03-03T01:00:37.238Z,99230.73
2019-03-03T01:05:07.450Z,99226.64
2019-03-03T01:09:43.709Z,99234.27
2019-03-03T01:13:56.437Z,99236.34
2019-03-03T01:18:20.940Z,99233.80
2019-03-03T01:22:40.941Z,99234.36
2019-03-03T01:26:43.925Z,99230.64
2019-03-03T01:30:46.667Z,99231.81
2019-03-03T01:34:49.590Z,99232.94
2019-03-03T01:38:52.239Z,99229.22
2019-03-03T01:42:54.860Z,99237.47
2019-03-03T01:46:57.539Z,99234.78
2019-03-03T01:51:00.604Z,99245.59
2019-03-03T01:55:03.108Z,99246.56
2019-03-03T01:59:06.960Z,99255.34
2019-03-03T02:03:09.790Z,99258.34
2019-03-03T02:07:12.472Z,99261.72
2019-03-03T02:11:15.028Z,99256.39
2019-03-03T02:15:17.922Z,99261.69
2019-03-03T02:19:20.692Z,99271.42
2019-03-03T02:23:23.694Z,99278.60
2019-03-03T02:27:27.293Z,99287.88
2019-03-03T02:31:30.163Z,99283.45
2019-03-03T02:35:32.987Z,99295.10
2019-03-03T02:39:35.744Z,99290.13
2019-03-03T02:43:41.638Z,99285.79
2019-03-03T02:47:44.620Z,99290.59
2019-03-03T02:51:47.430Z,99297.45
2019-03-03T02:55:50.120Z,99295.38
2019-03-03T02:59:52.804Z,99301.95
2019-03-03T03:03:55.372Z,99310.29
2019-03-03T03:08:02.678Z,99321.73
2019-03-03T03:12:30.259Z,99330.13
2019-03-03T03:16:48.517Z,99327.09
2019-03-03T03:21:17.219Z,99319.39
2019-03-03T03:25:27.385Z,99322.83
2019-03-03T03:29:48.918Z,99312.27
2019-03-03T03:33:59.613Z,99313.00
2019-03-03T03:38:18.561Z,99319.91
2019-03-03T03:42:39.990Z,99317.20
2019-03-03T03:46:51.289Z,99318.59
2019-03-03T03:51:11.390Z,99315.81
2019-03-03T03:55:32.203Z,99317.73
2019-03-03T04:00:05.839Z,99306.38
2019-03-03T04:04:39.531Z,99316.64
2019-03-03T04:08:48.197Z,99316.64
2019-03-03T04:13:19.196Z,99318.38
2019-03-03T04:17:43.399Z,99326.69
2019-03-03T04:22:08.132Z,99330.66
2019-03-03T04:26:32.525Z,99338.55
2019-03-03T04:30:53.848Z,99312.83
2019-03-03T04:35:24.605Z,99312.83
2019-03-03T04:39:33.850Z,99308.95
2019-03-03T04:43:58.044Z,99318.69
2019-03-03T04:48:28.068Z,99326.14
2019-03-03T04:52:36.091Z,99335.81
2019-03-03T04:56:58.033Z,99324.20
2019-03-03T05:01:18.565Z,99321.95
2019-03-03T05:05:28.411Z,99321.95
2019-03-03T05:09:49.979Z,99333.34
2019-03-03T05:13:57.553Z,99312.16
2019-03-03T05:18:14.569Z,99317.28
2019-03-03T05:22:17.114Z,99316.09
2019-03-03T05:26:19.757Z,99325.10
2019-03-03T05:30:22.607Z,99329.91
2019-03-03T05:34:25.250Z,99324.77
2019-03-03T05:38:27.990Z,99324.77
2019-03-03T05:42:30.573Z,99330.87
2019-03-03T05:46:33.189Z,99340.95
2019-03-03T05:50:35.823Z,99340.95
2019-03-03T05:54:38.515Z,99334.00
2019-03-03T05:58:41.324Z,99334.00
2019-03-03T06:02:44.003Z,99340.39
2019-03-03T06:06:46.633Z,99348.20
2019-03-03T06:10:49.293Z,99363.89
2019-03-03T06:14:52.787Z,99337.69
2019-03-03T06:18:55.413Z,99337.69
2019-03-03T06:22:57.943Z,99328.75
2019-03-03T06:27:00.517Z,99329.25
2019-03-03T06:31:03.273Z,99327.88
2019-03-03T06:35:06.913Z,99327.88
2019-03-03T06:39:09.738Z,99326.17
2019-03-03T06:43:12.498Z,99333.20
2019-03-03T06:47:15.001Z,99335.52
2019-03-03T06:51:17.554Z,99338.41
2019-03-03T06:55:20.146Z,99297.36
2019-03-03T06:59:23.130Z,99299.67
2019-03-03T07:03:25.670Z,99299.67
2019-03-03T07:07:28.451Z,99297.96
2019-03-03T07:11:31.126Z,99300.38
2019-03-03T07:15:33.724Z,99304.16
2019-03-03T07:19:36.350Z,99299.58
2019-03-03T07:23:39.050Z,99313.27
2019-03-03T07:27:41.776Z,99317.41
2019-03-03T07:31:44.524Z,99311.48
2019-03-03T07:35:47.169Z,99299.00
2019-03-03T07:39:49.967Z,99306.42
2019-03-03T07:43:52.811Z,99295.11
2019-03-03T07:47:55.584Z,99295.11
2019-03-03T07:51:58.388Z,99303.73
2019-03-03T07:56:01.267Z,99316.41
2019-03-03T08:00:07.270Z,99307.63
2019-03-03T08:04:10.009Z,99306.47
2019-03-03T08:08:12.527Z,99299.08
2019-03-03T08:12:15.364Z,99298.90
2019-03-03T08:16:18.015Z,99294.38
2019-03-03T08:20:21.342Z,99291.86
2019-03-03T08:24:23.961Z,99295.60
2019-03-03T08:28:26.637Z,99288.05
2019-03-03T08:32:29.263Z,99284.16
2019-03-03T08:36:31.910Z,99286.91
2019-03-03T08:40:34.466Z,99282.27
2019-03-03T08:44:47.779Z,99287.39
2019-03-03T08:48:57.840Z,99275.92
2019-03-03T08:53:26.032Z,99270.44
2019-03-03T08:57:56.630Z,99277.95
2019-03-03T09:02:24.165Z,99277.94
2019-03-03T09:06:45.306Z,99280.38
2019-03-03T09:11:12.546Z,99284.08
2019-03-03T09:15:24.864Z,99278.53
2019-03-03T09:19:45.164Z,99265.77
2019-03-03T09:24:09.351Z,99263.84
2019-03-03T09:28:30.080Z,99258.73
2019-03-03T09:32:51.710Z,99255.77
2019-03-03T09:37:05.353Z,99252.88
2019-03-03T09:41:14.804Z,99245.98
2019-03-03T09:45:45.346Z,99243.19
2019-03-03T09:50:06.164Z,99242.15
2019-03-03T09:54:28.830Z,99241.41
2019-03-03T09:58:46.366Z,99234.29
2019-03-03T10:03:00.429Z,99235.22
2019-03-03T10:07:16.019Z,99238.64
2019-03-03T10:11:43.283Z,99232.98
2019-03-03T10:15:51.300Z,99233.53
2019-03-03T10:20:22.573Z,99243.05
2019-03-03T10:24:53.632Z,99236.74
2019-03-03T10:29:15.069Z,99250.28
2019-03-03T10:33:42.384Z,99259.20
2019-03-03T10:38:07.520Z,99250.47
2019-03-03T10:42:17.185Z,99254.77
2019-03-03T10:46:37.201Z,99253.16
2019-03-03T10:50:58.465Z,99256.98
2019-03-03T10:55:26.500Z,99256.05
2019-03-03T10:59:54.781Z,99263.16
2019-03-03T11:04:11.204Z,99256.03
2019-03-03T11:08:22.695Z,99241.53
2019-03-03T11:12:44.024Z,99238.47
2019-03-03T11:17:08.459Z,99232.27
2019-03-03T11:21:39.059Z,99219.64
2019-03-03T11:26:03.101Z,99229.20
2019-03-03T11:30:28.010Z,99223.33
2019-03-03T11:34:40.915Z,99210.68
2019-03-03T11:39:02.031Z,99207.48
2019-03-03T11:43:24.765Z,99203.34
2019-03-03T11:48:04.094Z,99197.61
2019-03-03T11:52:19.349Z,99206.86
2019-03-03T11:56:37.082Z,99207.28
2019-03-03T12:01:07.414Z,99195.08
2019-03-03T12:05:34.164Z,99178.98
2019-03-03T12:09:53.190Z,99172.59
2019-03-03T12:14:22.484Z,99155.45
2019-03-03T12:18:36.165Z,99158.95
2019-03-03T12:22:56.355Z,99153.73
2019-03-03T12:27:25.090Z,99145.61
2019-03-03T12:31:52.789Z,99142.27
2019-03-03T12:36:26.109Z,99132.89
2019-03-03T12:40:45.985Z,99125.56
2019-03-03T12:45:22.464Z,99119.16
2019-03-03T12:49:32.058Z,99119.88
2019-03-03T12:53:49.549Z,99108.80
2019-03-03T12:58:09.626Z,99107.98
2019-03-03T13:02:50.939Z,99097.64
2019-03-03T13:07:21.494Z,99088.55
2019-03-03T13:11:42.165Z,99082.71
2019-03-03T13:16:03.382Z,99068.80
2019-03-03T13:20:17.094Z,99069.47
2019-03-03T13:24:31.329Z,99058.89
2019-03-03T13:28:55.584Z,99062.22
2019-03-03T13:33:22.659Z,99062.64
2019-03-03T13:37:42.628Z,99057.03
2019-03-03T13:42:02.825Z,99046.98
2019-03-03T13:46:05.660Z,99044.44
2019-03-03T13:50:10.375Z,99038.16
2019-03-03T13:54:12.820Z,99040.31
2019-03-03T13:58:15.461Z,99030.58
2019-03-03T14:02:18.634Z,99020.53
2019-03-03T14:06:21.385Z,99019.47
2019-03-03T14:10:24.199Z,99014.56
2019-03-03T14:14:27.045Z,99009.94
2019-03-03T14:18:29.795Z,99010.29
2019-03-03T14:22:32.195Z,98995.45
2019-03-03T14:26:34.539Z,98995.33
2019-03-03T14:30:37.040Z,98986.72
2019-03-03T14:34:39.638Z,98982.59
2019-03-03T14:38:42.295Z,98986.00
2019-03-03T14:42:45.509Z,98966.16
2019-03-03T14:46:48.255Z,98968.58
2019-03-03T14:50:51.194Z,98966.67
2019-03-03T14:54:53.900Z,98967.23
2019-03-03T14:58:58.389Z,98958.73
2019-03-03T15:03:02.979Z,98956.76
2019-03-03T15:07:05.965Z,98951.89
2019-03-03T15:11:08.454Z,98948.25
2019-03-03T15:15:11.359Z,98952.78
2019-03-03T15:19:14.243Z,98948.75
2019-03-03T15:23:16.615Z,98942.09
2019-03-03T15:27:19.397Z,98934.92
2019-03-03T15:31:21.824Z,98932.27
2019-03-03T15:35:24.395Z,98929.44
2019-03-03T15:39:27.184Z,98932.77
2019-03-03T15:43:30.035Z,98925.35
2019-03-03T15:47:32.476Z,98923.08
2019-03-03T15:51:35.209Z,98920.57
2019-03-03T15:55:37.888Z,98916.38
2019-03-03T15:59:40.620Z,98916.15
2019-03-03T16:03:43.109Z,98916.38
2019-03-03T16:07:46.880Z,98913.88
2019-03-03T16:11:49.932Z,98910.52
2019-03-03T16:15:52.703Z,98917.03
2019-03-03T16:19:57.084Z,98910.59
2019-03-03T16:23:59.703Z,98905.48
2019-03-03T16:28:02.305Z,98901.64
2019-03-03T16:32:05.141Z,98902.65
2019-03-03T16:36:07.912Z,98897.90
2019-03-03T16:40:13.483Z,98895.91
2019-03-03T16:44:16.103Z,98892.56
2019-03-03T16:48:20.389Z,98886.67
2019-03-03T16:52:23.028Z,98883.78
2019-03-03T16:56:25.789Z,98879.19
2019-03-03T17:00:28.609Z,98879.58
2019-03-03T17:04:31.786Z,98870.99
2019-03-03T17:08:38.103Z,98863.13
2019-03-03T17:12:41.597Z,98866.12
2019-03-03T17:16:44.207Z,98860.33
2019-03-03T17:20:47.387Z,98850.24
2019-03-03T17:24:51.235Z,98849.10
2019-03-03T17:28:53.985Z,98845.27
2019-03-03T17:32:56.920Z,98840.39
2019-03-03T17:37:00.018Z,98841.09
2019-03-03T17:41:02.656Z,98838.11
2019-03-03T17:45:07.711Z,98841.81
2019-03-03T17:49:10.326Z,98837.38
2019-03-03T17:53:13.057Z,98828.05
2019-03-03T17:57:15.824Z,98823.10
2019-03-03T18:01:18.650Z,98825.38
2019-03-03T18:05:21.828Z,98827.67
2019-03-03T18:09:24.561Z,98819.13
2019-03-03T18:13:27.184Z,98811.09
2019-03-03T18:17:29.958Z,98797.11
2019-03-03T18:21:32.753Z,98799.00
2019-03-03T18:25:35.431Z,98794.41
2019-03-03T18:29:39.214Z,98792.58
2019-03-03T18:33:41.831Z,98784.48
2019-03-03T18:37:44.470Z,98790.00
2019-03-03T18:41:47.612Z,98792.45
2019-03-03T18:45:50.563Z,98785.27
2019-03-03T18:49:53.199Z,98778.02
2019-03-03T18:53:55.843Z,98781.73
2019-03-03T18:57:58.599Z,98768.55
2019-03-03T19:02:01.394Z,98774.34
2019-03-03T19:06:04.212Z,98767.25
2019-03-03T19:10:08.411Z,98768.86
2019-03-03T19:14:11.180Z,98766.02
2019-03-03T19:18:13.710Z,98757.78
2019-03-03T19:22:19.421Z,98751.59
2019-03-03T19:26:22.503Z,98752.35
2019-03-03T19:30:26.216Z,98758.20
2019-03-03T19:34:29.016Z,98754.31
2019-03-03T19:38:31.757Z,98749.05
2019-03-03T19:42:34.457Z,98743.08
2019-03-03T19:46:37.223Z,98745.76
2019-03-03T19:50:40.307Z,98741.47
2019-03-03T19:54:43.007Z,98737.34
2019-03-03T19:58:46.582Z,98731.98
2019-03-03T20:02:49.777Z,98735.03
2019-03-03T20:06:52.517Z,98726.05
2019-03-03T20:10:55.650Z,98721.37
2019-03-03T20:14:58.282Z,98725.80
2019-03-03T20:19:01.051Z,98719.06
2019-03-03T20:23:03.954Z,98724.20
2019-03-03T20:27:06.859Z,98727.69
2019-03-03T20:31:09.733Z,98721.66
2019-03-03T20:35:12.893Z,98718.70
2019-03-03T20:39:15.668Z,98712.98
2019-03-03T20:43:18.427Z,98723.52
2019-03-03T20:47:21.255Z,98713.08
2019-03-03T20:51:24.104Z,98717.33
2019-03-03T20:55:26.896Z,98709.88
2019-03-03T20:59:29.499Z,98707.65
2019-03-03T21:03:32.079Z,98707.05
2019-03-03T21:07:34.653Z,98701.95
2019-03-03T21:11:37.261Z,98707.35
2019-03-03T21:15:39.812Z,98705.60
2019-03-03T21:19:42.449Z,98695.53
2019-03-03T21:23:45.529Z,98695.53
2019-03-03T21:27:49.584Z,98687.14
2019-03-03T21:31:52.475Z,98684.09
2019-03-03T21:35:55.351Z,98680.11
2019-03-03T21:39:58.320Z,98681.05
2019-03-03T21:44:01.765Z,98678.81
2019-03-03T21:48:04.703Z,98675.41
2019-03-03T21:52:07.534Z,98670.13
2019-03-03T21:56:10.534Z,98667.92
2019-03-03T22:00:19.099Z,98666.47
2019-03-03T22:04:22.511Z,98658.14
2019-03-03T22:08:25.185Z,98665.71
2019-03-03T22:12:27.829Z,98669.05
2019-03-03T22:16:30.690Z,98670.75
2019-03-03T22:20:33.502Z,98658.13
2019-03-03T22:24:36.477Z,98656.77
2019-03-03T22:28:39.393Z,98653.33
2019-03-03T22:32:42.039Z,98654.02
2019-03-03T22:36:44.920Z,98658.66
2019-03-03T22:40:47.679Z,98653.31
2019-03-03T22:44:50.411Z,98648.97
2019-03-03T22:48:53.065Z,98647.67
2019-03-03T22:52:55.839Z,98654.09
2019-03-03T22:56:58.398Z,98644.92
2019-03-03T23:01:22.277Z,98649.27
2019-03-03T23:05:35.282Z,98642.77
2019-03-03T23:10:29.807Z,98644.63
2019-03-03T23:14:43.867Z,98643.32
2019-03-03T23:19:21.889Z,98642.48
2019-03-03T23:24:19.140Z,98643.03
2019-03-03T23:28:23.466Z,98646.14
2019-03-03T23:32:26.076Z,98643.94
2019-03-03T23:36:28.762Z,98642.80
2019-03-03T23:40:31.481Z,98639.45
2019-03-03T23:44:34.139Z,98644.70
2019-03-03T23:48:36.745Z,98636.00
2019-03-03T23:52:39.503Z,98636.00
2019-03-03T23:56:42.094Z,98645.00
